sensor_id;sensor_type;location;lat;lon;timestamp;pressure;altitude;pressure_sealevel;temperature;humidity
54546;BME280;40444;45.184;9.850;2023-03-26T00:02:25;100411.88;;;12.38;67.47
54546;BME280;40444;45.184;9.850;2023-03-26T00:04:56;100417.72;;;12.33;68.07
54546;BME280;40444;45.184;9.850;2023-03-26T00:07:25;100416.63;;;12.26;68.07
54546;BME280;40444;45.184;9.850;2023-03-26T00:09:55;100413.72;;;12.20;67.72
54546;BME280;40444;45.184;9.850;2023-03-26T00:12:25;100420.84;;;12.11;68.15
54546;BME280;40444;45.184;9.850;2023-03-26T00:14:53;100426.97;;;12.03;68.05
54546;BME280;40444;45.184;9.850;2023-03-26T00:17:22;100441.00;;;11.97;68.18
54546;BME280;40444;45.184;9.850;2023-03-26T00:19:51;100456.66;;;11.74;67.85
54546;BME280;40444;45.184;9.850;2023-03-26T00:22:20;100467.84;;;11.13;71.33
54546;BME280;40444;45.184;9.850;2023-03-26T00:24:50;100484.97;;;10.54;75.92
54546;BME280;40444;45.184;9.850;2023-03-26T00:27:19;100478.94;;;10.21;79.27
54546;BME280;40444;45.184;9.850;2023-03-26T00:29:48;100487.09;;;9.60;83.31
54546;BME280;40444;45.184;9.850;2023-03-26T00:32:16;100475.41;;;9.61;84.69
54546;BME280;40444;45.184;9.850;2023-03-26T00:34:46;100467.63;;;9.58;84.65
54546;BME280;40444;45.184;9.850;2023-03-26T00:37:14;100461.84;;;9.53;84.96
54546;BME280;40444;45.184;9.850;2023-03-26T00:39:43;100470.94;;;9.71;83.55
54546;BME280;40444;45.184;9.850;2023-03-26T00:42:11;100478.13;;;9.80;82.01
54546;BME280;40444;45.184;9.850;2023-03-26T00:44:42;100479.53;;;9.75;82.49
54546;BME280;40444;45.184;9.850;2023-03-26T00:47:10;100458.66;;;9.69;85.79
54546;BME280;40444;45.184;9.850;2023-03-26T00:49:38;100473.78;;;9.79;87.65
54546;BME280;40444;45.184;9.850;2023-03-26T00:52:07;100470.13;;;9.80;88.99
54546;BME280;40444;45.184;9.850;2023-03-26T00:54:35;100481.53;;;9.82;92.69
54546;BME280;40444;45.184;9.850;2023-03-26T00:57:04;100476.34;;;9.91;94.49
54546;BME280;40444;45.184;9.850;2023-03-26T00:59:33;100465.94;;;9.97;97.39
54546;BME280;40444;45.184;9.850;2023-03-26T01:02:02;100466.97;;;10.06;100.00
54546;BME280;40444;45.184;9.850;2023-03-26T01:04:32;100455.84;;;10.10;100.00
54546;BME280;40444;45.184;9.850;2023-03-26T01:07:09;100457.94;;;10.07;100.00
54546;BME280;40444;45.184;9.850;2023-03-26T01:09:42;100461.19;;;10.10;100.00
54546;BME280;40444;45.184;9.850;2023-03-26T01:12:14;100455.84;;;10.20;100.00
54546;BME280;40444;45.184;9.850;2023-03-26T01:14:45;100448.38;;;10.24;100.00
54546;BME280;40444;45.184;9.850;2023-03-26T01:17:16;100441.47;;;10.21;100.00
54546;BME280;40444;45.184;9.850;2023-03-26T01:20:01;100423.28;;;10.15;100.00
54546;BME280;40444;45.184;9.850;2023-03-26T01:22:47;100421.19;;;10.09;100.00
54546;BME280;40444;45.184;9.850;2023-03-26T01:25:16;100419.88;;;10.13;100.00
54546;BME280;40444;45.184;9.850;2023-03-26T01:27:51;100421.31;;;10.17;100.00
54546;BME280;40444;45.184;9.850;2023-03-26T01:30:39;100417.38;;;10.21;100.00
54546;BME280;40444;45.184;9.850;2023-03-26T01:33:23;100401.06;;;10.24;100.00
54546;BME280;40444;45.184;9.850;2023-03-26T01:36:37;100399.06;;;10.26;100.00
54546;BME280;40444;45.184;9.850;2023-03-26T01:39:31;100401.22;;;10.32;100.00
54546;BME280;40444;45.184;9.850;2023-03-26T01:42:10;100404.16;;;10.29;100.00
54546;BME280;40444;45.184;9.850;2023-03-26T01:44:54;100400.91;;;10.26;100.00
54546;BME280;40444;45.184;9.850;2023-03-26T01:47:24;100400.91;;;10.26;100.00
54546;BME280;40444;45.184;9.850;2023-03-26T01:49:52;100407.38;;;10.23;100.00
54546;BME280;40444;45.184;9.850;2023-03-26T01:52:22;100404.81;;;10.22;100.00
54546;BME280;40444;45.184;9.850;2023-03-26T01:54:54;100412.00;;;10.21;100.00
54546;BME280;40444;45.184;9.850;2023-03-26T01:57:34;100407.66;;;10.20;100.00
54546;BME280;40444;45.184;9.850;2023-03-26T02:05:30;100402.56;;;10.17;100.00
54546;BME280;40444;45.184;9.850;2023-03-26T02:10:46;100396.63;;;10.04;100.00
54546;BME280;40444;45.184;9.850;2023-03-26T02:13:15;100401.28;;;10.02;100.00
54546;BME280;40444;45.184;9.850;2023-03-26T02:16:01;100408.34;;;10.03;100.00
54546;BME280;40444;45.184;9.850;2023-03-26T02:18:30;100415.94;;;10.07;100.00
54546;BME280;40444;45.184;9.850;2023-03-26T02:21:17;100414.84;;;10.10;100.00
54546;BME280;40444;45.184;9.850;2023-03-26T02:23:52;100407.50;;;10.12;100.00
54546;BME280;40444;45.184;9.850;2023-03-26T02:26:34;100406.91;;;10.08;100.00
54546;BME280;40444;45.184;9.850;2023-03-26T02:29:14;100407.91;;;9.98;100.00
54546;BME280;40444;45.184;9.850;2023-03-26T02:31:48;100412.00;;;9.92;100.00
54546;BME280;40444;45.184;9.850;2023-03-26T02:34:17;100420.28;;;9.89;100.00
54546;BME280;40444;45.184;9.850;2023-03-26T02:36:50;100416.19;;;9.85;100.00
54546;BME280;40444;45.184;9.850;2023-03-26T02:39:19;100412.66;;;9.75;100.00
54546;BME280;40444;45.184;9.850;2023-03-26T02:41:56;100412.88;;;9.62;100.00
54546;BME280;40444;45.184;9.850;2023-03-26T02:44:25;100420.31;;;9.58;100.00
54546;BME280;40444;45.184;9.850;2023-03-26T02:46:57;100407.78;;;9.59;100.00
54546;BME280;40444;45.184;9.850;2023-03-26T02:49:46;100409.09;;;9.65;100.00
54546;BME280;40444;45.184;9.850;2023-03-26T02:52:32;100419.25;;;9.71;100.00
54546;BME280;40444;45.184;9.850;2023-03-26T02:55:01;100417.16;;;9.74;100.00
54546;BME280;40444;45.184;9.850;2023-03-26T02:57:31;100419.69;;;9.76;100.00
54546;BME280;40444;45.184;9.850;2023-03-26T03:00:20;100418.00;;;9.75;100.00
54546;BME280;40444;45.184;9.850;2023-03-26T03:03:08;100414.75;;;9.71;100.00
54546;BME280;40444;45.184;9.850;2023-03-26T03:06:03;100407.38;;;9.63;100.00
54546;BME280;40444;45.184;9.850;2023-03-26T03:08:51;100428.25;;;9.60;100.00
54546;BME280;40444;45.184;9.850;2023-03-26T03:11:47;100419.91;;;9.63;100.00
54546;BME280;40444;45.184;9.850;2023-03-26T03:14:15;100429.22;;;9.69;100.00
54546;BME280;40444;45.184;9.850;2023-03-26T03:16:44;100424.59;;;9.71;100.00
54546;BME280;40444;45.184;9.850;2023-03-26T03:19:12;100431.78;;;9.70;100.00
54546;BME280;40444;45.184;9.850;2023-03-26T03:21:41;100429.38;;;9.67;100.00
54546;BME280;40444;45.184;9.850;2023-03-26T03:24:09;100429.50;;;9.66;100.00
54546;BME280;40444;45.184;9.850;2023-03-26T03:26:44;100431.19;;;9.67;100.00
54546;BME280;40444;45.184;9.850;2023-03-26T03:29:46;100434.56;;;9.69;100.00
54546;BME280;40444;45.184;9.850;2023-03-26T03:32:41;100437.66;;;9.64;100.00
54546;BME280;40444;45.184;9.850;2023-03-26T03:35:10;100432.16;;;9.56;100.00
